createdAt,value
2017-10-23T00:00:04.086Z,5.60
2017-10-23T00:02:31.614Z,4.60
2017-10-23T00:04:59.065Z,4.43
2017-10-23T00:07:26.662Z,5.73
2017-10-23T00:09:54.113Z,4.70
2017-10-23T00:12:21.573Z,4.37
2017-10-23T00:14:49.057Z,5.30
2017-10-23T00:17:17.291Z,5.80
2017-10-23T00:19:44.819Z,4.83
2017-10-23T00:22:12.273Z,6.40
2017-10-23T00:24:39.758Z,5.37
2017-10-23T00:27:07.217Z,4.50
2017-10-23T00:29:34.701Z,4.00
2017-10-23T00:32:02.182Z,2.80
2017-10-23T00:34:30.405Z,3.33
2017-10-23T00:36:57.882Z,5.40
2017-10-23T00:39:25.347Z,5.70
2017-10-23T00:41:52.827Z,5.10
2017-10-23T00:44:20.280Z,6.70
2017-10-23T00:46:47.754Z,3.20
2017-10-23T00:49:15.371Z,4.17
2017-10-23T00:51:42.823Z,4.23
2017-10-23T00:54:10.265Z,2.10
2017-10-23T00:56:37.742Z,6.83
2017-10-23T00:59:05.237Z,3.93
2017-10-23T01:01:32.735Z,5.07
2017-10-23T01:04:00.198Z,6.33
2017-10-23T01:06:27.682Z,4.07
2017-10-23T01:08:55.129Z,4.60
2017-10-23T01:11:22.606Z,5.30
2017-10-23T01:13:50.072Z,3.90
2017-10-23T01:16:17.561Z,4.60
2017-10-23T01:18:45.018Z,5.20
2017-10-23T01:21:12.479Z,4.50
2017-10-23T01:23:40.718Z,4.37
2017-10-23T01:26:08.245Z,4.80
2017-10-23T01:28:36.022Z,4.47
2017-10-23T01:31:03.465Z,3.77
2017-10-23T01:33:30.937Z,4.60
2017-10-23T01:35:58.407Z,5.03
2017-10-23T01:38:25.883Z,4.43
2017-10-23T01:40:53.334Z,4.20
2017-10-23T01:43:20.813Z,4.97
2017-10-23T01:45:48.271Z,4.37
2017-10-23T01:48:15.729Z,4.87
2017-10-23T01:50:43.197Z,5.07
2017-10-23T01:53:10.727Z,6.33
2017-10-23T01:55:38.129Z,4.53
2017-10-23T01:58:06.351Z,4.03
2017-10-23T02:00:33.833Z,3.67
2017-10-23T02:03:01.281Z,4.47
2017-10-23T02:05:28.732Z,4.60
2017-10-23T02:07:56.218Z,4.20
2017-10-23T02:10:23.675Z,3.27
2017-10-23T02:12:51.158Z,3.80
2017-10-23T02:15:18.613Z,3.23
2017-10-23T02:17:46.822Z,5.10
2017-10-23T02:20:14.368Z,6.27
2017-10-23T02:22:41.830Z,5.13
2017-10-23T02:25:09.309Z,4.30
2017-10-23T02:27:36.786Z,4.07
2017-10-23T02:30:04.512Z,4.53
2017-10-23T02:32:32.015Z,4.47
2017-10-23T02:34:59.542Z,5.03
2017-10-23T02:37:26.993Z,4.90
2017-10-23T02:39:54.526Z,3.80
2017-10-23T02:42:21.983Z,4.17
2017-10-23T02:44:49.464Z,5.00
2017-10-23T02:47:16.946Z,4.93
2017-10-23T02:49:44.428Z,4.97
2017-10-23T02:52:11.907Z,4.60
2017-10-23T02:54:39.361Z,3.20
2017-10-23T02:57:06.859Z,4.53
2017-10-23T02:59:35.090Z,4.65
2017-10-23T03:02:02.543Z,4.90
2017-10-23T03:04:30.019Z,5.20
2017-10-23T03:06:57.474Z,3.40
2017-10-23T03:09:25.042Z,4.70
2017-10-23T03:11:52.521Z,4.53
2017-10-23T03:14:19.983Z,4.00
2017-10-23T03:16:47.481Z,3.10
2017-10-23T03:19:14.934Z,4.00
2017-10-23T03:21:42.384Z,3.30
2017-10-23T03:24:09.858Z,2.67
2017-10-23T03:26:37.313Z,3.37
2017-10-23T03:29:06.476Z,3.80
2017-10-23T03:31:33.927Z,3.33
2017-10-23T03:34:01.416Z,2.53
2017-10-23T03:36:28.870Z,3.27
2017-10-23T03:38:56.362Z,3.60
2017-10-23T03:41:24.624Z,2.43
2017-10-23T03:43:52.080Z,2.63
2017-10-23T03:46:19.550Z,3.33
2017-10-23T03:48:47.837Z,4.00
2017-10-23T03:51:16.073Z,3.20
2017-10-23T03:53:43.539Z,3.90
2017-10-23T03:56:11.013Z,3.50
2017-10-23T03:58:38.509Z,3.17
2017-10-23T04:01:07.115Z,4.28
2017-10-23T04:03:34.574Z,4.30
2017-10-23T04:06:02.061Z,4.27
2017-10-23T04:08:29.532Z,2.60
2017-10-23T04:10:56.981Z,3.57
2017-10-23T04:13:24.460Z,3.53
2017-10-23T04:15:52.698Z,3.07
2017-10-23T04:18:20.141Z,3.30
2017-10-23T04:20:47.618Z,3.20
2017-10-23T04:23:15.075Z,3.23
2017-10-23T04:25:42.547Z,2.90
2017-10-23T04:28:09.992Z,3.50
2017-10-23T04:30:37.534Z,2.37
2017-10-23T04:33:04.981Z,1.73
2017-10-23T04:35:32.441Z,2.90
2017-10-23T04:37:59.925Z,2.60
2017-10-23T04:40:27.382Z,2.93
2017-10-23T04:42:54.872Z,2.00
2017-10-23T04:45:22.351Z,2.87
2017-10-23T04:47:49.794Z,2.57
2017-10-23T04:50:17.284Z,2.50
2017-10-23T04:52:44.738Z,2.90
2017-10-23T04:55:12.189Z,4.07
2017-10-23T04:57:39.690Z,2.50
2017-10-23T05:00:07.485Z,2.60
2017-10-23T05:02:34.937Z,2.90
2017-10-23T05:05:02.419Z,3.40
2017-10-23T05:07:29.877Z,3.40
2017-10-23T05:09:57.330Z,3.13
2017-10-23T05:12:24.811Z,2.73
2017-10-23T05:14:52.261Z,3.83
2017-10-23T05:17:19.745Z,2.80
2017-10-23T05:19:47.194Z,2.97
2017-10-23T05:22:14.670Z,3.10
2017-10-23T05:24:42.910Z,3.77
2017-10-23T05:27:10.391Z,3.77
2017-10-23T05:29:38.929Z,2.30
2017-10-23T05:32:07.171Z,3.47
2017-10-23T05:34:34.630Z,3.00
2017-10-23T05:37:02.110Z,2.47
2017-10-23T05:39:29.603Z,3.87
2017-10-23T05:41:57.820Z,2.70
2017-10-23T05:44:25.281Z,3.50
2017-10-23T05:46:52.765Z,2.87
2017-10-23T05:49:20.222Z,2.87
2017-10-23T05:51:47.689Z,3.40
2017-10-23T05:54:15.948Z,2.50
2017-10-23T05:56:44.182Z,2.27
2017-10-23T05:59:11.729Z,2.20
2017-10-23T06:01:39.213Z,2.73
2017-10-23T06:04:06.661Z,2.07
2017-10-23T06:06:34.150Z,2.07
2017-10-23T06:09:01.604Z,2.00
2017-10-23T06:11:29.870Z,2.03
2017-10-23T06:13:57.350Z,2.87
2017-10-23T06:16:24.810Z,2.77
2017-10-23T06:18:52.281Z,2.40
2017-10-23T06:21:19.732Z,1.60
2017-10-23T06:23:48.038Z,2.30
2017-10-23T06:26:16.870Z,2.00
2017-10-23T06:28:44.468Z,2.70
2017-10-23T06:31:12.060Z,2.73
2017-10-23T06:33:39.838Z,2.77
2017-10-23T06:36:07.522Z,2.10
2017-10-23T06:38:35.127Z,2.77
2017-10-23T06:41:02.646Z,1.90
2017-10-23T06:43:30.125Z,2.23
2017-10-23T06:45:57.573Z,2.47
2017-10-23T06:48:25.051Z,1.93
2017-10-23T06:50:52.533Z,1.67
2017-10-23T06:53:19.969Z,1.67
2017-10-23T06:55:47.420Z,3.03
2017-10-23T06:58:14.900Z,2.93
2017-10-23T07:00:45.549Z,3.00
2017-10-23T07:03:13.006Z,2.20
2017-10-23T07:05:40.496Z,2.40
2017-10-23T07:08:07.977Z,1.40
2017-10-23T07:10:35.425Z,2.10
2017-10-23T07:13:02.905Z,2.10
2017-10-23T07:15:30.353Z,1.73
2017-10-23T07:17:57.826Z,2.50
2017-10-23T07:20:25.306Z,4.07
2017-10-23T07:22:52.761Z,2.57
2017-10-23T07:25:20.254Z,3.10
2017-10-23T07:27:48.533Z,2.47
2017-10-23T07:30:16.021Z,2.50
2017-10-23T07:32:43.501Z,3.97
2017-10-23T07:35:11.718Z,1.23
2017-10-23T07:37:40.113Z,2.77
2017-10-23T07:40:07.590Z,2.10
2017-10-23T07:42:35.041Z,1.20
2017-10-23T07:45:02.523Z,1.97
2017-10-23T07:47:29.997Z,2.40
2017-10-23T07:49:57.586Z,3.90
2017-10-23T07:52:25.045Z,4.30
2017-10-23T07:54:52.534Z,4.20
2017-10-23T07:57:19.989Z,6.07
2017-10-23T07:59:47.466Z,2.37
2017-10-23T08:02:14.947Z,2.57
2017-10-23T08:04:42.406Z,1.93
2017-10-23T08:07:11.566Z,1.80
2017-10-23T08:09:39.021Z,1.87
2017-10-23T08:12:06.477Z,1.87
2017-10-23T08:14:34.705Z,2.87
2017-10-23T08:17:02.186Z,2.77
2017-10-23T08:19:29.702Z,3.20
2017-10-23T08:21:57.962Z,2.77
2017-10-23T08:24:25.429Z,1.90
2017-10-23T08:26:52.896Z,3.17
2017-10-23T08:29:21.157Z,2.67
2017-10-23T08:31:48.621Z,2.50
2017-10-23T08:34:16.097Z,2.83
2017-10-23T08:36:44.362Z,3.40
2017-10-23T08:39:12.578Z,3.57
2017-10-23T08:41:40.024Z,2.10
2017-10-23T08:44:07.513Z,3.20
2017-10-23T08:46:35.002Z,2.43
2017-10-23T08:49:02.465Z,3.63
2017-10-23T08:51:29.924Z,2.73
2017-10-23T08:53:57.401Z,3.67
2017-10-23T08:56:25.638Z,3.30
2017-10-23T08:58:53.196Z,3.47
2017-10-23T09:01:20.673Z,3.28
2017-10-23T09:03:48.146Z,3.50
2017-10-23T09:06:16.369Z,3.77
2017-10-23T09:08:43.841Z,3.30
2017-10-23T09:11:12.641Z,2.10
2017-10-23T09:13:40.089Z,1.57
2017-10-23T09:16:07.549Z,3.10
2017-10-23T09:18:35.052Z,2.07
2017-10-23T09:21:03.275Z,2.77
2017-10-23T09:23:30.736Z,2.43
2017-10-23T09:25:58.201Z,3.80
2017-10-23T09:28:25.652Z,2.77
2017-10-23T09:30:53.173Z,1.73
2017-10-23T09:33:20.662Z,3.97
2017-10-23T09:35:48.131Z,2.40
2017-10-23T09:38:15.630Z,3.30
2017-10-23T09:40:43.080Z,2.27
2017-10-23T09:43:10.542Z,2.50
2017-10-23T09:45:38.022Z,3.20
2017-10-23T09:48:05.477Z,2.50
2017-10-23T09:50:32.937Z,2.63
2017-10-23T09:53:00.455Z,2.77
2017-10-23T09:55:27.881Z,3.20
2017-10-23T09:57:55.378Z,3.07
2017-10-23T10:00:22.826Z,2.90
2017-10-23T10:02:50.314Z,2.00
2017-10-23T10:05:17.782Z,2.00
2017-10-23T10:07:45.245Z,1.80
2017-10-23T10:10:12.998Z,3.03
2017-10-23T10:12:40.458Z,1.20
2017-10-23T10:15:08.690Z,2.10
2017-10-23T10:17:36.170Z,1.73
2017-10-23T10:20:03.637Z,1.80
2017-10-23T10:22:31.093Z,2.67
2017-10-23T10:24:58.596Z,2.03
2017-10-23T10:27:26.057Z,2.10
2017-10-23T10:29:53.516Z,2.20
2017-10-23T10:32:20.990Z,1.53
2017-10-23T10:34:48.450Z,1.70
2017-10-23T10:37:15.922Z,1.50
2017-10-23T10:39:44.434Z,1.87
2017-10-23T10:42:13.837Z,1.17
2017-10-23T10:44:41.307Z,2.90
2017-10-23T10:47:08.767Z,1.57
2017-10-23T10:49:36.250Z,2.50
2017-10-23T10:52:03.738Z,2.17
2017-10-23T10:54:31.224Z,1.77
2017-10-23T10:56:59.452Z,1.47
2017-10-23T10:59:26.916Z,2.10
2017-10-23T11:01:54.391Z,1.83
2017-10-23T11:04:21.858Z,2.10
2017-10-23T11:06:49.354Z,2.50
2017-10-23T11:09:16.813Z,1.93
2017-10-23T11:11:44.289Z,1.73
2017-10-23T11:14:11.765Z,2.60
2017-10-23T11:16:39.241Z,1.80
2017-10-23T11:19:06.711Z,1.90
2017-10-23T11:21:34.177Z,1.93
2017-10-23T11:24:02.436Z,1.43
2017-10-23T11:26:29.913Z,1.80
2017-10-23T11:28:57.375Z,0.90
2017-10-23T11:31:24.840Z,1.37
2017-10-23T11:33:52.323Z,1.40
2017-10-23T11:36:19.793Z,1.50
2017-10-23T11:38:47.346Z,1.17
2017-10-23T11:41:14.806Z,2.00
2017-10-23T11:43:42.262Z,1.53
2017-10-23T11:46:10.501Z,2.63
2017-10-23T11:48:39.090Z,1.43
2017-10-23T11:51:07.241Z,1.70
2017-10-23T11:53:36.265Z,1.47
2017-10-23T11:56:05.080Z,1.50
2017-10-23T11:58:33.268Z,1.90
2017-10-23T12:01:02.134Z,1.67
2017-10-23T12:03:30.635Z,1.33
2017-10-23T12:05:59.610Z,1.77
2017-10-23T12:08:29.779Z,1.33
2017-10-23T12:10:59.143Z,1.77
2017-10-23T12:13:28.003Z,1.10
2017-10-23T12:15:56.435Z,2.00
2017-10-23T12:18:23.956Z,1.60
2017-10-23T12:20:51.439Z,1.63
2017-10-23T12:23:18.908Z,1.87
2017-10-23T12:25:46.361Z,1.43
2017-10-23T12:28:13.850Z,0.97
2017-10-23T12:30:41.378Z,1.60
2017-10-23T12:33:08.837Z,2.17
2017-10-23T12:35:36.310Z,1.57
2017-10-23T12:38:03.769Z,1.70
2017-10-23T12:40:31.252Z,1.40
2017-10-23T12:42:58.825Z,2.10
2017-10-23T12:45:27.624Z,2.20
2017-10-23T12:47:55.774Z,1.77
2017-10-23T12:50:24.104Z,1.47
2017-10-23T12:52:52.232Z,2.37
2017-10-23T12:55:20.468Z,1.23
2017-10-23T12:57:48.562Z,1.33
2017-10-23T13:00:16.165Z,2.40
2017-10-23T13:02:44.405Z,1.07
2017-10-23T13:05:11.863Z,2.40
2017-10-23T13:07:39.310Z,1.80
2017-10-23T13:10:06.792Z,1.70
2017-10-23T13:12:34.282Z,2.13
2017-10-23T13:15:01.780Z,1.50
2017-10-23T13:17:29.258Z,1.40
2017-10-23T13:19:56.725Z,1.90
2017-10-23T13:22:24.202Z,2.00
2017-10-23T13:24:51.658Z,1.63
2017-10-23T13:27:19.129Z,1.47
2017-10-23T13:29:46.683Z,2.00
2017-10-23T13:32:14.922Z,1.97
2017-10-23T13:34:42.410Z,1.70
2017-10-23T13:37:10.633Z,1.67
2017-10-23T13:39:38.914Z,1.37
2017-10-23T13:42:06.373Z,1.70
2017-10-23T13:44:33.870Z,1.40
2017-10-23T13:47:02.098Z,3.10
2017-10-23T13:49:29.559Z,2.23
2017-10-23T13:51:57.050Z,3.80
2017-10-23T13:54:24.510Z,2.70
2017-10-23T13:56:51.968Z,3.27
2017-10-23T13:59:19.462Z,1.50
2017-10-23T14:01:47.807Z,3.10
2017-10-23T14:04:15.305Z,2.40
2017-10-23T14:06:42.817Z,1.97
2017-10-23T14:09:10.273Z,2.63
2017-10-23T14:11:37.721Z,1.87
2017-10-23T14:14:05.194Z,2.30
2017-10-23T14:16:32.670Z,2.07
2017-10-23T14:19:00.894Z,1.77
2017-10-23T14:21:28.376Z,2.23
2017-10-23T14:23:55.846Z,2.50
2017-10-23T14:26:23.299Z,2.87
2017-10-23T14:28:50.798Z,2.03
2017-10-23T14:31:18.281Z,2.10
2017-10-23T14:33:45.753Z,1.40
2017-10-23T14:36:13.237Z,2.17
2017-10-23T14:38:40.702Z,1.90
2017-10-23T14:41:08.941Z,1.90
2017-10-23T14:43:36.418Z,1.87
2017-10-23T14:46:03.874Z,1.70
2017-10-23T14:48:31.350Z,2.17
2017-10-23T14:50:58.800Z,1.70
2017-10-23T14:53:26.277Z,2.20
2017-10-23T14:55:53.749Z,2.77
2017-10-23T14:58:21.233Z,1.87
2017-10-23T15:00:48.705Z,1.90
2017-10-23T15:03:16.207Z,1.60
2017-10-23T15:05:43.652Z,2.40
2017-10-23T15:08:11.106Z,2.00
2017-10-23T15:10:38.584Z,1.60
2017-10-23T15:13:06.809Z,2.00
2017-10-23T15:15:34.294Z,2.03
2017-10-23T15:18:01.752Z,1.60
2017-10-23T15:20:29.326Z,2.37
2017-10-23T15:22:56.789Z,2.30
2017-10-23T15:25:24.253Z,2.77
2017-10-23T15:27:51.751Z,2.43
2017-10-23T15:30:19.221Z,2.03
2017-10-23T15:32:46.685Z,2.23
2017-10-23T15:35:14.173Z,2.33
2017-10-23T15:37:41.637Z,2.83
2017-10-23T15:40:09.114Z,2.17
2017-10-23T15:42:37.346Z,2.97
2017-10-23T15:45:04.826Z,2.30
2017-10-23T15:47:32.302Z,3.03
2017-10-23T15:50:00.577Z,2.80
2017-10-23T15:52:28.830Z,2.97
2017-10-23T15:54:56.298Z,3.40
2017-10-23T15:57:23.773Z,3.58
2017-10-23T15:59:52.042Z,4.23
2017-10-23T16:02:20.272Z,4.90
2017-10-23T16:04:47.755Z,6.00
2017-10-23T16:07:15.245Z,5.33
2017-10-23T16:09:43.489Z,5.90
2017-10-23T16:12:10.998Z,5.67
2017-10-23T16:14:38.446Z,6.47
2017-10-23T16:17:05.926Z,8.33
2017-10-23T16:19:33.371Z,3.87
2017-10-23T16:22:00.883Z,3.40
2017-10-23T16:24:28.399Z,3.03
2017-10-23T16:26:55.867Z,2.80
2017-10-23T16:29:23.320Z,3.47
2017-10-23T16:31:50.818Z,88.13
2017-10-23T16:34:18.289Z,52.13
2017-10-23T16:36:46.528Z,15.47
2017-10-23T16:39:14.013Z,56.67
2017-10-23T16:41:41.508Z,7.20
2017-10-23T16:44:09.736Z,5.93
2017-10-23T16:46:37.194Z,4.23
2017-10-23T16:49:04.702Z,3.30
2017-10-23T16:51:32.185Z,5.00
2017-10-23T16:53:59.646Z,4.40
2017-10-23T16:56:27.106Z,3.17
2017-10-23T16:58:54.582Z,3.90
2017-10-23T17:01:22.042Z,3.70
2017-10-23T17:03:51.062Z,11.52
2017-10-23T17:06:18.560Z,6.90
2017-10-23T17:08:46.005Z,5.43
2017-10-23T17:11:14.226Z,3.95
2017-10-23T17:13:41.712Z,4.63
2017-10-23T17:16:09.317Z,3.90
2017-10-23T17:18:37.681Z,4.63
2017-10-23T17:21:05.151Z,3.50
2017-10-23T17:23:32.613Z,4.57
2017-10-23T17:26:00.298Z,4.70
2017-10-23T17:28:27.877Z,4.83
2017-10-23T17:30:55.619Z,4.13
2017-10-23T17:33:23.100Z,4.60
2017-10-23T17:35:51.046Z,5.37
2017-10-23T17:38:18.564Z,4.40
2017-10-23T17:40:46.311Z,4.70
2017-10-23T17:43:13.829Z,5.13
2017-10-23T17:45:41.273Z,4.67
2017-10-23T17:48:08.865Z,5.10
2017-10-23T17:50:36.343Z,5.53
2017-10-23T17:53:03.821Z,5.75
2017-10-23T17:55:31.301Z,6.50
2017-10-23T17:57:58.778Z,6.93
2017-10-23T18:00:26.254Z,6.47
2017-10-23T18:02:53.709Z,6.57
2017-10-23T18:05:21.342Z,6.30
2017-10-23T18:07:48.793Z,5.70
2017-10-23T18:10:16.324Z,6.17
2017-10-23T18:12:44.565Z,5.33
2017-10-23T18:15:12.025Z,5.57
2017-10-23T18:17:39.501Z,6.33
2017-10-23T18:20:07.111Z,5.23
2017-10-23T18:22:34.586Z,6.00
2017-10-23T18:25:02.066Z,8.37
2017-10-23T18:27:29.540Z,6.40
2017-10-23T18:29:57.010Z,5.10
2017-10-23T18:32:25.249Z,6.70
2017-10-23T18:34:52.705Z,7.40
2017-10-23T18:37:20.174Z,7.50
2017-10-23T18:39:47.677Z,8.63
2017-10-23T18:42:15.199Z,8.07
2017-10-23T18:44:42.683Z,8.63
2017-10-23T18:47:10.146Z,10.57
2017-10-23T18:49:38.477Z,11.20
2017-10-23T18:52:06.122Z,11.70
2017-10-23T18:54:33.700Z,11.20
2017-10-23T18:57:01.189Z,12.07
2017-10-23T18:59:28.660Z,12.13
2017-10-23T19:01:56.193Z,10.43
2017-10-23T19:04:23.993Z,13.20
2017-10-23T19:06:53.144Z,12.60
2017-10-23T19:09:20.691Z,13.47
2017-10-23T19:11:48.409Z,12.57
2017-10-23T19:14:16.099Z,14.90
2017-10-23T19:16:43.963Z,13.50
2017-10-23T19:19:11.990Z,13.70
2017-10-23T19:21:39.818Z,13.30
2017-10-23T19:24:07.710Z,12.33
2017-10-23T19:26:35.247Z,13.17
2017-10-23T19:29:02.696Z,13.53
2017-10-23T19:31:30.169Z,14.87
2017-10-23T19:33:57.653Z,14.27
2017-10-23T19:36:25.471Z,14.07
2017-10-23T19:38:53.014Z,14.17
2017-10-23T19:41:20.635Z,14.83
2017-10-23T19:43:48.153Z,12.70
2017-10-23T19:46:15.614Z,13.60
2017-10-23T19:48:43.371Z,13.50
2017-10-23T19:51:10.858Z,13.70
2017-10-23T19:53:38.317Z,13.87
2017-10-23T19:56:06.194Z,13.40
2017-10-23T19:58:33.684Z,13.90
2017-10-23T20:01:01.945Z,15.50
2017-10-23T20:03:29.407Z,14.63
2017-10-23T20:05:56.857Z,14.23
2017-10-23T20:08:24.351Z,14.27
2017-10-23T20:10:53.501Z,13.53
2017-10-23T20:13:21.721Z,14.70
2017-10-23T20:15:49.189Z,14.07
2017-10-23T20:18:16.669Z,13.90
2017-10-23T20:20:44.325Z,14.20
2017-10-23T20:23:11.908Z,13.80
2017-10-23T20:25:39.357Z,13.00
2017-10-23T20:28:06.818Z,12.82
2017-10-23T20:30:34.303Z,14.90
2017-10-23T20:33:01.761Z,14.30
2017-10-23T20:35:29.281Z,15.10
2017-10-23T20:37:56.761Z,13.73
2017-10-23T20:40:24.246Z,14.03
2017-10-23T20:42:51.725Z,14.90
2017-10-23T20:45:19.978Z,14.90
2017-10-23T20:47:47.437Z,15.53
2017-10-23T20:50:14.890Z,14.47
2017-10-23T20:52:42.426Z,14.60
2017-10-23T20:55:09.935Z,14.40
2017-10-23T20:57:37.394Z,15.80
2017-10-23T21:00:04.940Z,15.30
2017-10-23T21:02:32.421Z,15.57
2017-10-23T21:04:59.915Z,16.40
2017-10-23T21:07:27.369Z,15.77
2017-10-23T21:09:54.826Z,14.87
2017-10-23T21:12:22.314Z,15.67
2017-10-23T21:14:49.770Z,14.37
2017-10-23T21:17:17.249Z,15.07
2017-10-23T21:19:45.493Z,14.00
2017-10-23T21:22:12.948Z,16.30
2017-10-23T21:24:40.425Z,15.97
2017-10-23T21:27:07.886Z,15.87
2017-10-23T21:29:35.492Z,15.73
2017-10-23T21:32:02.992Z,16.10
2017-10-23T21:34:30.479Z,15.50
2017-10-23T21:36:57.939Z,16.13
2017-10-23T21:39:25.993Z,15.40
2017-10-23T21:41:53.449Z,15.20
2017-10-23T21:44:20.914Z,16.07
2017-10-23T21:47:00.164Z,40.97
2017-10-23T21:49:28.396Z,44.27
2017-10-23T21:51:55.878Z,41.20
2017-10-23T21:54:23.338Z,38.70
2017-10-23T21:56:51.598Z,38.80
2017-10-23T21:59:19.113Z,32.60
2017-10-23T22:01:46.601Z,35.10
2017-10-23T22:04:14.101Z,36.90
2017-10-23T22:06:41.574Z,35.43
2017-10-23T22:09:09.030Z,28.67
2017-10-23T22:11:37.286Z,28.03
2017-10-23T22:14:04.753Z,19.90
2017-10-23T22:16:32.226Z,17.10
2017-10-23T22:19:00.446Z,15.80
2017-10-23T22:21:27.944Z,18.87
2017-10-23T22:23:56.685Z,16.60
2017-10-23T22:26:24.154Z,18.80
2017-10-23T22:28:51.676Z,17.73
2017-10-23T22:31:19.141Z,19.57
2017-10-23T22:33:46.633Z,18.50
2017-10-23T22:36:14.114Z,17.87
2017-10-23T22:38:41.565Z,18.67
2017-10-23T22:41:09.050Z,19.03
2017-10-23T22:43:37.269Z,19.90
2017-10-23T22:46:04.724Z,19.90
2017-10-23T22:48:32.193Z,20.03
2017-10-23T22:50:59.653Z,20.80
2017-10-23T22:53:27.126Z,20.10
2017-10-23T22:55:54.590Z,19.63
2017-10-23T22:58:22.069Z,20.93
2017-10-23T23:00:49.525Z,19.67
2017-10-23T23:03:17.013Z,20.67
2017-10-23T23:05:44.500Z,20.33
2017-10-23T23:08:11.965Z,20.63
2017-10-23T23:10:39.440Z,19.77
2017-10-23T23:13:06.903Z,21.40
2017-10-23T23:15:34.381Z,21.40
2017-10-23T23:18:02.610Z,21.60
2017-10-23T23:20:30.121Z,21.87
2017-10-23T23:22:58.358Z,22.17
2017-10-23T23:25:25.848Z,23.97
2017-10-23T23:27:54.110Z,22.20
2017-10-23T23:30:21.586Z,23.60
2017-10-23T23:32:49.806Z,23.70
2017-10-23T23:35:17.284Z,22.27
2017-10-23T23:37:44.754Z,23.33
2017-10-23T23:40:12.238Z,24.67
2017-10-23T23:42:40.507Z,22.80
2017-10-23T23:45:08.733Z,23.73
2017-10-23T23:47:36.196Z,24.03
2017-10-23T23:50:03.725Z,23.60
2017-10-23T23:52:31.206Z,20.60
2017-10-23T23:54:58.678Z,20.80
2017-10-23T23:57:26.148Z,22.03
2017-10-23T23:59:53.633Z,24.77
